createdAt,value
2022-10-29T00:01:11.581Z,16.23
2022-10-29T00:04:33.340Z,16.23
2022-10-29T00:07:54.918Z,16.20
2022-10-29T00:11:22.853Z,16.19
2022-10-29T00:14:44.371Z,16.17
2022-10-29T00:18:05.945Z,16.16
2022-10-29T00:21:27.833Z,16.14
2022-10-29T00:24:49.317Z,16.14
2022-10-29T00:28:12.435Z,16.14
2022-10-29T00:31:33.906Z,16.14
2022-10-29T00:34:55.480Z,16.15
2022-10-29T00:38:16.571Z,16.15
2022-10-29T00:41:37.770Z,16.15
2022-10-29T00:45:00.676Z,16.16
2022-10-29T00:48:24.570Z,16.17
2022-10-29T00:51:47.586Z,16.16
2022-10-29T00:55:15.394Z,16.18
2022-10-29T00:58:36.973Z,16.19
2022-10-29T01:02:00.030Z,16.20
2022-10-29T01:05:25.012Z,16.21
2022-10-29T01:08:48.800Z,16.23
2022-10-29T01:12:29.991Z,16.23
2022-10-29T01:16:01.642Z,16.25
2022-10-29T01:19:42.068Z,16.25
2022-10-29T01:23:20.101Z,16.28
2022-10-29T01:27:20.291Z,16.28
2022-10-29T01:31:04.777Z,16.30
2022-10-29T01:34:33.457Z,16.29
2022-10-29T01:38:06.460Z,16.32
2022-10-29T01:41:34.067Z,16.33
2022-10-29T01:44:59.900Z,16.34
2022-10-29T01:48:32.171Z,16.35
2022-10-29T01:51:57.427Z,16.33
2022-10-29T01:55:21.318Z,16.34
2022-10-29T01:58:48.655Z,16.32
2022-10-29T02:02:16.737Z,16.32
2022-10-29T02:05:47.526Z,16.31
2022-10-29T02:09:16.479Z,16.31
2022-10-29T02:12:46.936Z,16.29
2022-10-29T02:16:10.947Z,16.26
2022-10-29T02:19:33.447Z,16.24
2022-10-29T02:22:56.415Z,16.22
2022-10-29T02:26:17.841Z,16.21
2022-10-29T02:29:39.633Z,16.18
2022-10-29T02:33:01.511Z,16.18
2022-10-29T02:36:23.257Z,16.15
2022-10-29T02:39:45.914Z,16.13
2022-10-29T02:43:07.365Z,16.10
2022-10-29T02:46:30.284Z,16.08
2022-10-29T02:49:54.708Z,16.04
2022-10-29T02:53:15.931Z,16.03
2022-10-29T02:56:38.769Z,16.02
2022-10-29T03:00:00.163Z,16.02
2022-10-29T03:03:21.700Z,16.00
2022-10-29T03:06:42.873Z,15.99
2022-10-29T03:10:04.805Z,15.97
2022-10-29T03:13:27.853Z,15.95
2022-10-29T03:16:49.302Z,15.95
2022-10-29T03:20:11.247Z,15.94
2022-10-29T03:23:32.859Z,15.92
2022-10-29T03:26:54.172Z,15.93
2022-10-29T03:30:18.438Z,15.93
2022-10-29T03:33:39.902Z,15.92
2022-10-29T03:37:01.658Z,15.90
2022-10-29T03:40:23.472Z,15.90
2022-10-29T03:43:44.956Z,15.91
2022-10-29T03:47:08.754Z,15.89
2022-10-29T03:50:30.011Z,15.90
2022-10-29T03:53:51.175Z,15.90
2022-10-29T03:57:12.395Z,15.88
2022-10-29T04:00:33.866Z,15.86
2022-10-29T04:03:56.564Z,15.85
2022-10-29T04:07:18.254Z,15.84
2022-10-29T04:10:45.249Z,15.81
2022-10-29T04:14:09.832Z,15.81
2022-10-29T04:17:31.045Z,15.78
2022-10-29T04:28:42.447Z,15.76
2022-10-29T04:31:59.029Z,15.74
2022-10-29T04:35:22.592Z,15.71
2022-10-29T04:38:45.804Z,15.70
2022-10-29T04:42:07.697Z,15.69
2022-10-29T04:45:29.621Z,15.68
2022-10-29T04:48:51.597Z,15.66
2022-10-29T04:52:13.287Z,15.65
2022-10-29T04:55:37.416Z,15.63
2022-10-29T04:58:59.230Z,15.63
2022-10-29T05:02:20.610Z,15.60
2022-10-29T05:05:42.016Z,15.57
2022-10-29T05:09:03.799Z,15.56
2022-10-29T05:12:26.599Z,15.54
2022-10-29T05:15:53.546Z,15.53
2022-10-29T05:19:20.078Z,15.51
2022-10-29T05:22:43.890Z,15.49
2022-10-29T05:26:17.024Z,15.46
2022-10-29T05:30:39.457Z,15.43
2022-10-29T05:34:04.790Z,15.41
2022-10-29T05:37:33.847Z,15.39
2022-10-29T05:40:58.359Z,15.37
2022-10-29T05:44:20.211Z,15.36
2022-10-29T05:47:43.003Z,15.36
2022-10-29T05:51:06.743Z,15.33
2022-10-29T05:54:28.742Z,15.31
2022-10-29T05:57:53.641Z,15.28
2022-10-29T06:01:15.295Z,15.28
2022-10-29T06:04:37.796Z,15.26
2022-10-29T06:08:01.805Z,15.24
2022-10-29T06:11:29.152Z,15.23
2022-10-29T06:14:51.500Z,15.19
2022-10-29T06:18:13.907Z,15.21
2022-10-29T06:21:36.196Z,15.19
2022-10-29T06:25:04.162Z,15.17
2022-10-29T06:28:33.476Z,15.18
2022-10-29T06:31:56.474Z,15.17
2022-10-29T06:35:21.208Z,15.16
2022-10-29T06:38:44.078Z,15.17
2022-10-29T06:42:09.232Z,15.17
2022-10-29T06:46:11.429Z,15.17
2022-10-29T06:49:35.805Z,15.17
2022-10-29T06:53:00.720Z,15.18
2022-10-29T06:56:22.667Z,15.17
2022-10-29T06:59:45.390Z,15.16
2022-10-29T07:03:07.741Z,15.15
2022-10-29T07:06:33.605Z,15.16
2022-10-29T07:09:56.365Z,15.15
2022-10-29T07:13:19.869Z,15.17
2022-10-29T07:16:46.287Z,15.17
2022-10-29T07:20:11.761Z,15.18
2022-10-29T07:23:56.567Z,15.18
2022-10-29T07:27:42.129Z,15.21
2022-10-29T07:31:04.532Z,15.22
2022-10-29T07:34:28.779Z,15.24
2022-10-29T07:37:53.274Z,15.24
2022-10-29T07:41:18.367Z,15.26
2022-10-29T07:44:43.128Z,15.28
2022-10-29T07:48:08.870Z,15.29
2022-10-29T07:51:31.959Z,15.32
2022-10-29T07:54:53.416Z,15.34
2022-10-29T07:58:15.307Z,15.37
2022-10-29T08:01:45.897Z,15.40
2022-10-29T08:05:10.645Z,15.45
2022-10-29T08:08:35.165Z,15.46
2022-10-29T08:12:01.318Z,15.51
2022-10-29T08:15:29.852Z,15.53
2022-10-29T08:18:52.344Z,15.57
2022-10-29T08:22:16.959Z,15.66
2022-10-29T08:25:42.890Z,15.71
2022-10-29T08:29:04.600Z,15.72
2022-10-29T08:32:29.815Z,15.71
2022-10-29T08:35:52.749Z,15.77
2022-10-29T08:39:35.844Z,15.76
2022-10-29T08:43:36.701Z,15.77
2022-10-29T08:47:11.627Z,15.80
2022-10-29T08:50:42.045Z,15.80
2022-10-29T08:54:25.510Z,15.85
2022-10-29T08:57:52.258Z,15.87
2022-10-29T09:01:31.852Z,15.91
2022-10-29T09:05:04.445Z,15.94
2022-10-29T09:08:38.932Z,15.91
2022-10-29T09:12:17.221Z,15.96
2022-10-29T09:15:57.633Z,15.99
2022-10-29T09:19:51.655Z,16.08
2022-10-29T09:23:27.125Z,16.12
2022-10-29T09:26:58.479Z,16.16
2022-10-29T09:30:21.850Z,16.19
2022-10-29T09:33:50.848Z,16.21
2022-10-29T09:37:21.836Z,16.22
2022-10-29T09:40:45.314Z,16.24
2022-10-29T09:44:22.343Z,16.24
2022-10-29T09:47:53.454Z,16.27
2022-10-29T09:51:27.205Z,16.33
2022-10-29T09:55:04.503Z,16.42
2022-10-29T09:58:29.616Z,16.49
2022-10-29T10:01:51.073Z,16.54
2022-10-29T10:05:18.850Z,16.55
2022-10-29T10:09:01.703Z,16.56
2022-10-29T10:12:26.875Z,16.59
2022-10-29T10:16:00.425Z,16.62
2022-10-29T10:19:26.926Z,16.66
2022-10-29T10:22:48.419Z,16.67
2022-10-29T10:26:29.381Z,16.74
2022-10-29T10:30:13.241Z,16.78
2022-10-29T10:33:38.086Z,16.73
2022-10-29T10:37:09.561Z,16.69
2022-10-29T10:40:38.039Z,16.70
2022-10-29T10:44:08.573Z,16.73
2022-10-29T10:47:36.501Z,16.77
2022-10-29T10:51:21.560Z,16.78
2022-10-29T10:54:47.549Z,16.85
2022-10-29T10:58:16.498Z,16.92
2022-10-29T11:02:04.596Z,16.98
2022-10-29T11:05:56.452Z,16.98
2022-10-29T11:09:52.594Z,17.00
2022-10-29T11:13:20.604Z,16.97
2022-10-29T11:16:50.779Z,17.00
2022-10-29T11:20:25.574Z,17.03
2022-10-29T11:24:16.283Z,17.04
2022-10-29T11:27:58.342Z,17.05
2022-10-29T11:31:34.260Z,17.06
2022-10-29T11:39:11.848Z,17.05
2022-10-29T11:42:39.338Z,17.10
2022-10-29T11:46:11.094Z,17.11
2022-10-29T11:49:54.808Z,17.14
2022-10-29T11:53:43.323Z,17.16
2022-10-29T11:57:10.308Z,17.18
2022-10-29T12:00:45.954Z,17.21
2022-10-29T12:04:28.286Z,17.23
2022-10-29T12:08:06.757Z,17.26
2022-10-29T12:11:42.067Z,17.31
2022-10-29T12:15:18.478Z,17.35
2022-10-29T12:18:48.456Z,17.43
2022-10-29T12:22:25.978Z,17.48
2022-10-29T12:26:04.541Z,17.54
2022-10-29T12:29:35.054Z,17.57
2022-10-29T12:33:08.376Z,17.60
2022-10-29T12:36:42.785Z,17.62
2022-10-29T12:40:16.131Z,17.64
2022-10-29T12:43:42.916Z,17.68
2022-10-29T12:47:15.524Z,17.73
2022-10-29T12:50:55.995Z,17.73
2022-10-29T12:54:26.831Z,17.80
2022-10-29T12:57:57.876Z,17.84
2022-10-29T13:02:10.549Z,17.89
2022-10-29T13:05:41.316Z,17.92
2022-10-29T13:09:17.292Z,17.96
2022-10-29T13:13:01.955Z,17.97
2022-10-29T13:16:29.329Z,17.99
2022-10-29T13:19:53.677Z,18.01
2022-10-29T13:23:45.213Z,18.07
2022-10-29T13:27:37.133Z,18.13
2022-10-29T13:31:32.920Z,18.17
2022-10-29T13:34:57.908Z,18.22
2022-10-29T13:38:58.159Z,18.26
2022-10-29T13:42:29.236Z,18.29
2022-10-29T13:46:03.706Z,18.35
2022-10-29T13:49:31.215Z,18.42
2022-10-29T13:52:59.442Z,18.48
2022-10-29T13:56:29.874Z,18.52
2022-10-29T13:59:57.312Z,18.55
2022-10-29T14:03:27.242Z,18.58
2022-10-29T14:06:51.652Z,18.61
2022-10-29T14:10:22.886Z,18.63
2022-10-29T14:13:48.985Z,18.66
2022-10-29T14:17:12.554Z,18.70
2022-10-29T14:20:33.946Z,18.70
2022-10-29T14:23:57.059Z,18.72
2022-10-29T14:27:20.630Z,18.72
2022-10-29T14:30:42.280Z,18.76
2022-10-29T14:34:03.729Z,18.77
2022-10-29T14:37:33.421Z,18.78
2022-10-29T14:40:57.220Z,18.79
2022-10-29T14:44:33.773Z,18.81
2022-10-29T14:47:58.387Z,18.78
2022-10-29T14:51:21.925Z,18.74
2022-10-29T14:54:50.304Z,18.69
2022-10-29T14:58:20.242Z,18.64
2022-10-29T15:02:01.183Z,18.59
2022-10-29T15:05:36.034Z,18.51
2022-10-29T15:09:03.573Z,18.44
2022-10-29T15:12:36.811Z,18.36
2022-10-29T15:16:04.307Z,18.30
2022-10-29T15:19:30.911Z,18.25
2022-10-29T15:22:59.040Z,18.18
2022-10-29T15:26:22.394Z,18.13
2022-10-29T15:29:47.907Z,18.07
2022-10-29T15:33:18.127Z,18.02
2022-10-29T15:36:49.201Z,17.96
2022-10-29T15:40:17.770Z,17.90
2022-10-29T15:43:51.748Z,17.82
2022-10-29T15:47:30.198Z,17.72
2022-10-29T15:50:52.436Z,17.65
2022-10-29T15:54:15.667Z,17.58
2022-10-29T15:57:37.660Z,17.52
2022-10-29T16:00:59.332Z,17.44
2022-10-29T16:04:20.738Z,17.41
2022-10-29T16:07:44.014Z,17.35
2022-10-29T16:11:11.863Z,17.31
2022-10-29T16:14:34.007Z,17.28
2022-10-29T16:17:55.945Z,17.25
2022-10-29T16:21:20.954Z,17.18
2022-10-29T16:24:43.193Z,17.17
2022-10-29T16:28:09.613Z,17.14
2022-10-29T16:31:32.335Z,17.12
2022-10-29T16:34:54.727Z,17.11
2022-10-29T16:38:21.584Z,17.05
2022-10-29T16:41:44.535Z,16.99
2022-10-29T16:45:15.161Z,16.99
2022-10-29T16:48:37.305Z,16.98
2022-10-29T16:51:59.042Z,16.95
2022-10-29T16:55:20.288Z,16.92
2022-10-29T16:58:41.578Z,16.90
2022-10-29T17:02:04.651Z,16.88
2022-10-29T17:05:26.132Z,16.85
2022-10-29T17:09:06.650Z,16.81
2022-10-29T17:12:28.776Z,16.81
2022-10-29T17:15:50.460Z,16.78
2022-10-29T17:19:13.253Z,16.75
2022-10-29T17:22:35.037Z,16.73
2022-10-29T17:25:58.518Z,16.71
2022-10-29T17:29:20.484Z,16.69
2022-10-29T17:32:56.292Z,16.64
2022-10-29T17:36:21.099Z,16.60
2022-10-29T17:39:42.809Z,16.57
2022-10-29T17:43:04.457Z,16.53
2022-10-29T17:46:26.387Z,16.51
2022-10-29T17:49:47.987Z,16.46
2022-10-29T17:53:11.225Z,16.43
2022-10-29T17:56:35.847Z,16.39
2022-10-29T17:59:57.508Z,16.36
2022-10-29T18:03:20.060Z,16.31
2022-10-29T18:06:41.357Z,16.29
2022-10-29T18:10:05.104Z,16.27
2022-10-29T18:13:26.642Z,16.25
2022-10-29T18:16:48.441Z,16.23
2022-10-29T18:20:12.156Z,16.20
2022-10-29T18:23:34.358Z,16.17
2022-10-29T18:26:57.391Z,16.14
2022-10-29T18:30:22.748Z,16.09
2022-10-29T18:33:44.656Z,16.07
2022-10-29T18:37:06.808Z,16.05
2022-10-29T18:40:29.142Z,16.02
2022-10-29T18:43:54.103Z,16.02
2022-10-29T18:47:15.773Z,15.99
2022-10-29T18:50:43.858Z,15.96
2022-10-29T18:54:07.979Z,15.92
2022-10-29T18:57:29.668Z,15.86
2022-10-29T19:00:52.329Z,15.84
2022-10-29T19:04:16.381Z,15.83
2022-10-29T19:07:42.633Z,15.80
2022-10-29T19:11:05.826Z,15.78
2022-10-29T19:14:27.555Z,15.74
2022-10-29T19:17:51.186Z,15.71
2022-10-29T19:21:14.763Z,15.68
2022-10-29T19:24:37.083Z,15.67
2022-10-29T19:27:59.303Z,15.65
2022-10-29T19:31:23.674Z,15.62
2022-10-29T19:34:47.078Z,15.59
2022-10-29T19:38:08.740Z,15.55
2022-10-29T19:41:30.559Z,15.51
2022-10-29T19:44:55.470Z,15.48
2022-10-29T19:48:29.966Z,15.45
2022-10-29T19:51:56.439Z,15.42
2022-10-29T19:55:20.230Z,15.40
2022-10-29T19:58:42.519Z,15.39
2022-10-29T20:02:04.612Z,15.36
2022-10-29T20:05:26.247Z,15.33
2022-10-29T20:08:49.285Z,15.28
2022-10-29T20:12:17.509Z,15.26
2022-10-29T20:15:42.765Z,15.23
2022-10-29T20:19:05.002Z,15.19
2022-10-29T20:22:26.760Z,15.15
2022-10-29T20:25:49.502Z,15.13
2022-10-29T20:29:12.732Z,15.09
2022-10-29T20:32:34.221Z,15.06
2022-10-29T20:35:56.377Z,15.02
2022-10-29T20:39:22.741Z,14.99
2022-10-29T20:42:50.429Z,14.98
2022-10-29T20:46:12.597Z,14.96
2022-10-29T20:49:37.144Z,14.93
2022-10-29T20:52:58.685Z,14.90
2022-10-29T20:56:20.944Z,14.87
2022-10-29T20:59:43.773Z,14.85
2022-10-29T21:03:12.346Z,14.82
2022-10-29T21:06:35.025Z,14.81
2022-10-29T21:10:00.690Z,14.80
2022-10-29T21:13:25.156Z,14.78
2022-10-29T21:16:48.033Z,14.76
2022-10-29T21:20:10.030Z,14.75
2022-10-29T21:23:32.315Z,14.74
2022-10-29T21:26:53.761Z,14.71
2022-10-29T21:30:15.171Z,14.71
2022-10-29T21:33:38.383Z,14.65
2022-10-29T21:36:59.675Z,14.65
2022-10-29T21:40:21.050Z,14.62
2022-10-29T21:43:42.418Z,14.60
2022-10-29T21:47:03.694Z,14.59
2022-10-29T21:50:26.533Z,14.58
2022-10-29T21:53:48.209Z,14.59
2022-10-29T21:57:10.030Z,14.56
2022-10-29T22:00:32.295Z,14.55
2022-10-29T22:03:53.900Z,14.54
2022-10-29T22:07:16.553Z,14.52
2022-10-29T22:10:41.226Z,14.50
2022-10-29T22:14:02.670Z,14.48
2022-10-29T22:17:24.313Z,14.48
2022-10-29T22:20:45.568Z,14.45
2022-10-29T22:24:10.270Z,14.45
2022-10-29T22:27:31.669Z,14.45
2022-10-29T22:30:58.674Z,14.43
2022-10-29T22:34:20.160Z,14.44
2022-10-29T22:37:41.417Z,14.44
2022-10-29T22:41:08.285Z,14.40
2022-10-29T22:44:29.698Z,14.40
2022-10-29T22:47:50.852Z,14.37
2022-10-29T22:51:14.747Z,14.36
2022-10-29T22:54:36.531Z,14.33
2022-10-29T22:57:59.568Z,14.32
2022-10-29T23:01:23.108Z,14.29
2022-10-29T23:04:44.658Z,14.26
2022-10-29T23:08:06.882Z,14.25
2022-10-29T23:11:30.428Z,14.18
2022-10-29T23:14:52.983Z,14.15
2022-10-29T23:18:14.776Z,14.11
2022-10-29T23:21:36.983Z,14.07
2022-10-29T23:24:58.272Z,14.04
2022-10-29T23:28:20.198Z,14.01
2022-10-29T23:31:42.996Z,13.98
2022-10-29T23:35:04.539Z,13.95
2022-10-29T23:38:26.278Z,13.93
2022-10-29T23:41:47.790Z,13.91
2022-10-29T23:45:10.113Z,13.88
2022-10-29T23:48:33.055Z,13.86
2022-10-29T23:51:54.645Z,13.87
2022-10-29T23:55:16.457Z,13.86
2022-10-29T23:58:37.820Z,13.87
